sensor_id;sensor_type;location;lat;lon;timestamp;temperature;humidity
4461;DHT22;2243;48.812;9.232;2023-03-08T00:02:21;5.70;93.70
4461;DHT22;2243;48.812;9.232;2023-03-08T00:04:55;5.70;93.70
4461;DHT22;2243;48.812;9.232;2023-03-08T00:07:26;5.70;93.80
4461;DHT22;2243;48.812;9.232;2023-03-08T00:09:57;5.70;93.80
4461;DHT22;2243;48.812;9.232;2023-03-08T00:12:28;5.70;93.70
4461;DHT22;2243;48.812;9.232;2023-03-08T00:14:59;5.80;93.80
4461;DHT22;2243;48.812;9.232;2023-03-08T00:17:30;5.70;93.80
4461;DHT22;2243;48.812;9.232;2023-03-08T00:20:01;5.80;93.90
4461;DHT22;2243;48.812;9.232;2023-03-08T00:22:37;5.80;93.90
4461;DHT22;2243;48.812;9.232;2023-03-08T00:25:10;5.70;93.90
4461;DHT22;2243;48.812;9.232;2023-03-08T00:27:41;5.70;93.90
4461;DHT22;2243;48.812;9.232;2023-03-08T00:30:12;5.70;94.00
4461;DHT22;2243;48.812;9.232;2023-03-08T00:32:44;5.70;94.00
4461;DHT22;2243;48.812;9.232;2023-03-08T00:35:15;5.70;94.00
4461;DHT22;2243;48.812;9.232;2023-03-08T00:37:46;5.70;94.10
4461;DHT22;2243;48.812;9.232;2023-03-08T00:40:17;5.70;94.00
4461;DHT22;2243;48.812;9.232;2023-03-08T00:42:48;5.70;94.10
4461;DHT22;2243;48.812;9.232;2023-03-08T00:45:18;5.70;94.10
4461;DHT22;2243;48.812;9.232;2023-03-08T00:47:49;5.70;94.20
4461;DHT22;2243;48.812;9.232;2023-03-08T00:50:20;5.60;94.30
4461;DHT22;2243;48.812;9.232;2023-03-08T00:52:51;5.60;94.30
4461;DHT22;2243;48.812;9.232;2023-03-08T00:55:22;5.70;94.40
4461;DHT22;2243;48.812;9.232;2023-03-08T00:57:53;5.70;94.30
4461;DHT22;2243;48.812;9.232;2023-03-08T01:00:24;5.70;94.40
4461;DHT22;2243;48.812;9.232;2023-03-08T01:02:56;5.70;94.30
4461;DHT22;2243;48.812;9.232;2023-03-08T01:05:27;5.70;94.40
4461;DHT22;2243;48.812;9.232;2023-03-08T01:07:58;5.70;94.40
4461;DHT22;2243;48.812;9.232;2023-03-08T01:10:32;5.70;94.50
4461;DHT22;2243;48.812;9.232;2023-03-08T01:13:05;5.80;94.50
4461;DHT22;2243;48.812;9.232;2023-03-08T01:15:37;5.70;94.50
4461;DHT22;2243;48.812;9.232;2023-03-08T01:18:08;5.70;94.40
4461;DHT22;2243;48.812;9.232;2023-03-08T01:20:39;5.60;94.50
4461;DHT22;2243;48.812;9.232;2023-03-08T01:23:10;5.60;94.60
4461;DHT22;2243;48.812;9.232;2023-03-08T01:25:41;5.60;94.70
4461;DHT22;2243;48.812;9.232;2023-03-08T01:28:12;5.50;94.80
4461;DHT22;2243;48.812;9.232;2023-03-08T01:30:43;5.50;94.90
4461;DHT22;2243;48.812;9.232;2023-03-08T01:33:14;5.50;95.00
4461;DHT22;2243;48.812;9.232;2023-03-08T01:35:46;5.40;95.10
4461;DHT22;2243;48.812;9.232;2023-03-08T01:38:17;5.30;95.30
4461;DHT22;2243;48.812;9.232;2023-03-08T01:40:48;5.30;95.40
4461;DHT22;2243;48.812;9.232;2023-03-08T01:43:28;5.30;95.50
4461;DHT22;2243;48.812;9.232;2023-03-08T01:52:15;5.20;95.80
4461;DHT22;2243;48.812;9.232;2023-03-08T01:54:54;5.20;95.80
4461;DHT22;2243;48.812;9.232;2023-03-08T01:57:30;5.20;95.80
4461;DHT22;2243;48.812;9.232;2023-03-08T02:00:08;5.10;95.90
4461;DHT22;2243;48.812;9.232;2023-03-08T02:02:49;5.10;96.00
4461;DHT22;2243;48.812;9.232;2023-03-08T02:05:22;5.10;96.00
4461;DHT22;2243;48.812;9.232;2023-03-08T02:07:54;5.00;96.10
4461;DHT22;2243;48.812;9.232;2023-03-08T02:10:25;5.00;96.10
4461;DHT22;2243;48.812;9.232;2023-03-08T02:12:56;5.00;96.20
4461;DHT22;2243;48.812;9.232;2023-03-08T02:15:27;4.90;96.20
4461;DHT22;2243;48.812;9.232;2023-03-08T02:17:58;4.90;96.20
4461;DHT22;2243;48.812;9.232;2023-03-08T02:20:37;4.90;96.40
4461;DHT22;2243;48.812;9.232;2023-03-08T02:23:19;4.90;96.40
4461;DHT22;2243;48.812;9.232;2023-03-08T02:25:57;4.90;96.50
4461;DHT22;2243;48.812;9.232;2023-03-08T02:28:31;5.00;96.40
4461;DHT22;2243;48.812;9.232;2023-03-08T02:31:02;4.90;96.50
4461;DHT22;2243;48.812;9.232;2023-03-08T02:33:33;4.90;96.60
4461;DHT22;2243;48.812;9.232;2023-03-08T02:36:05;4.90;96.60
4461;DHT22;2243;48.812;9.232;2023-03-08T02:38:39;5.00;96.50
4461;DHT22;2243;48.812;9.232;2023-03-08T02:41:10;5.00;96.40
4461;DHT22;2243;48.812;9.232;2023-03-08T02:43:41;4.90;96.50
4461;DHT22;2243;48.812;9.232;2023-03-08T02:46:13;5.00;96.40
4461;DHT22;2243;48.812;9.232;2023-03-08T02:48:44;5.00;96.60
4461;DHT22;2243;48.812;9.232;2023-03-08T02:51:15;5.00;96.40
4461;DHT22;2243;48.812;9.232;2023-03-08T02:53:46;5.00;96.60
4461;DHT22;2243;48.812;9.232;2023-03-08T02:56:17;5.00;96.60
4461;DHT22;2243;48.812;9.232;2023-03-08T02:58:48;4.90;96.60
4461;DHT22;2243;48.812;9.232;2023-03-08T03:01:19;4.90;96.60
4461;DHT22;2243;48.812;9.232;2023-03-08T03:03:53;5.00;96.40
4461;DHT22;2243;48.812;9.232;2023-03-08T03:06:24;5.00;96.40
4461;DHT22;2243;48.812;9.232;2023-03-08T03:08:55;4.90;96.40
4461;DHT22;2243;48.812;9.232;2023-03-08T03:11:26;4.90;96.50
4461;DHT22;2243;48.812;9.232;2023-03-08T03:13:58;5.00;96.50
4461;DHT22;2243;48.812;9.232;2023-03-08T03:16:29;5.00;96.40
4461;DHT22;2243;48.812;9.232;2023-03-08T03:19:00;5.00;96.30
4461;DHT22;2243;48.812;9.232;2023-03-08T03:21:31;5.00;96.20
4461;DHT22;2243;48.812;9.232;2023-03-08T03:24:02;5.00;96.40
4461;DHT22;2243;48.812;9.232;2023-03-08T03:26:33;5.00;96.60
4461;DHT22;2243;48.812;9.232;2023-03-08T03:29:04;5.00;96.40
4461;DHT22;2243;48.812;9.232;2023-03-08T03:31:35;5.00;96.20
4461;DHT22;2243;48.812;9.232;2023-03-08T03:34:06;5.00;96.30
4461;DHT22;2243;48.812;9.232;2023-03-08T03:36:37;5.00;96.30
4461;DHT22;2243;48.812;9.232;2023-03-08T03:39:08;5.10;96.30
4461;DHT22;2243;48.812;9.232;2023-03-08T03:41:39;5.10;96.40
4461;DHT22;2243;48.812;9.232;2023-03-08T03:44:10;5.00;96.40
4461;DHT22;2243;48.812;9.232;2023-03-08T03:46:41;4.90;96.70
4461;DHT22;2243;48.812;9.232;2023-03-08T03:49:12;4.80;97.00
4461;DHT22;2243;48.812;9.232;2023-03-08T03:51:42;4.80;96.90
4461;DHT22;2243;48.812;9.232;2023-03-08T03:54:14;4.80;97.00
4461;DHT22;2243;48.812;9.232;2023-03-08T03:56:45;4.70;97.10
4461;DHT22;2243;48.812;9.232;2023-03-08T03:59:16;4.80;97.00
4461;DHT22;2243;48.812;9.232;2023-03-08T04:01:47;4.80;97.00
4461;DHT22;2243;48.812;9.232;2023-03-08T04:04:18;4.70;97.70
4461;DHT22;2243;48.812;9.232;2023-03-08T04:06:49;4.70;97.60
4461;DHT22;2243;48.812;9.232;2023-03-08T04:09:20;4.70;97.60
4461;DHT22;2243;48.812;9.232;2023-03-08T04:11:51;4.60;97.80
4461;DHT22;2243;48.812;9.232;2023-03-08T04:14:21;4.50;97.70
4461;DHT22;2243;48.812;9.232;2023-03-08T04:16:52;4.60;97.90
4461;DHT22;2243;48.812;9.232;2023-03-08T04:19:23;4.60;98.20
4461;DHT22;2243;48.812;9.232;2023-03-08T04:21:54;4.50;98.30
4461;DHT22;2243;48.812;9.232;2023-03-08T04:24:25;4.60;98.50
4461;DHT22;2243;48.812;9.232;2023-03-08T04:26:56;4.60;98.20
4461;DHT22;2243;48.812;9.232;2023-03-08T04:29:27;4.60;97.80
4461;DHT22;2243;48.812;9.232;2023-03-08T04:31:58;4.70;98.10
4461;DHT22;2243;48.812;9.232;2023-03-08T04:34:29;4.60;98.30
4461;DHT22;2243;48.812;9.232;2023-03-08T04:37:00;4.70;97.90
4461;DHT22;2243;48.812;9.232;2023-03-08T04:39:31;4.70;97.70
4461;DHT22;2243;48.812;9.232;2023-03-08T04:42:02;4.80;97.70
4461;DHT22;2243;48.812;9.232;2023-03-08T04:44:34;4.80;97.60
4461;DHT22;2243;48.812;9.232;2023-03-08T04:47:05;4.80;97.20
4461;DHT22;2243;48.812;9.232;2023-03-08T04:49:36;4.90;97.10
4461;DHT22;2243;48.812;9.232;2023-03-08T04:52:07;5.00;97.10
4461;DHT22;2243;48.812;9.232;2023-03-08T04:54:38;5.10;96.50
4461;DHT22;2243;48.812;9.232;2023-03-08T04:57:08;5.10;96.50
4461;DHT22;2243;48.812;9.232;2023-03-08T04:59:41;5.10;96.50
4461;DHT22;2243;48.812;9.232;2023-03-08T05:02:13;5.20;96.40
4461;DHT22;2243;48.812;9.232;2023-03-08T05:04:44;5.00;97.10
4461;DHT22;2243;48.812;9.232;2023-03-08T05:07:15;5.10;97.20
4461;DHT22;2243;48.812;9.232;2023-03-08T05:09:46;5.00;97.40
4461;DHT22;2243;48.812;9.232;2023-03-08T05:12:17;5.00;97.20
4461;DHT22;2243;48.812;9.232;2023-03-08T05:14:48;5.10;97.10
4461;DHT22;2243;48.812;9.232;2023-03-08T05:17:18;5.10;96.80
4461;DHT22;2243;48.812;9.232;2023-03-08T05:19:50;5.20;96.80
4461;DHT22;2243;48.812;9.232;2023-03-08T05:22:21;5.10;96.80
4461;DHT22;2243;48.812;9.232;2023-03-08T05:24:51;5.10;96.80
4461;DHT22;2243;48.812;9.232;2023-03-08T05:27:23;5.20;96.70
4461;DHT22;2243;48.812;9.232;2023-03-08T05:29:54;5.30;96.50
4461;DHT22;2243;48.812;9.232;2023-03-08T05:32:25;5.30;96.70
4461;DHT22;2243;48.812;9.232;2023-03-08T05:34:56;5.30;96.70
4461;DHT22;2243;48.812;9.232;2023-03-08T05:37:26;5.30;96.70
4461;DHT22;2243;48.812;9.232;2023-03-08T05:39:57;5.00;97.10
4461;DHT22;2243;48.812;9.232;2023-03-08T05:42:30;5.10;97.10
4461;DHT22;2243;48.812;9.232;2023-03-08T05:45:02;5.30;96.80
4461;DHT22;2243;48.812;9.232;2023-03-08T05:47:33;5.30;96.90
4461;DHT22;2243;48.812;9.232;2023-03-08T05:50:04;5.30;96.90
4461;DHT22;2243;48.812;9.232;2023-03-08T05:52:35;5.40;96.90
4461;DHT22;2243;48.812;9.232;2023-03-08T05:55:07;5.20;97.00
4461;DHT22;2243;48.812;9.232;2023-03-08T05:57:38;5.20;97.30
4461;DHT22;2243;48.812;9.232;2023-03-08T06:00:09;5.20;97.20
4461;DHT22;2243;48.812;9.232;2023-03-08T06:02:41;5.30;97.00
4461;DHT22;2243;48.812;9.232;2023-03-08T06:05:12;5.30;96.90
4461;DHT22;2243;48.812;9.232;2023-03-08T06:07:43;5.30;97.00
4461;DHT22;2243;48.812;9.232;2023-03-08T06:10:15;5.30;97.20
4461;DHT22;2243;48.812;9.232;2023-03-08T06:12:46;5.40;97.30
4461;DHT22;2243;48.812;9.232;2023-03-08T06:15:17;5.30;97.00
4461;DHT22;2243;48.812;9.232;2023-03-08T06:17:52;5.20;97.30
4461;DHT22;2243;48.812;9.232;2023-03-08T06:20:23;5.30;97.20
4461;DHT22;2243;48.812;9.232;2023-03-08T06:22:54;5.40;97.30
4461;DHT22;2243;48.812;9.232;2023-03-08T06:25:25;5.50;97.20
4461;DHT22;2243;48.812;9.232;2023-03-08T06:27:56;5.50;97.30
4461;DHT22;2243;48.812;9.232;2023-03-08T06:30:27;5.50;97.40
4461;DHT22;2243;48.812;9.232;2023-03-08T06:32:58;5.50;97.50
4461;DHT22;2243;48.812;9.232;2023-03-08T06:35:29;5.50;97.50
4461;DHT22;2243;48.812;9.232;2023-03-08T06:38:00;5.40;97.40
4461;DHT22;2243;48.812;9.232;2023-03-08T06:40:31;5.40;97.70
4461;DHT22;2243;48.812;9.232;2023-03-08T06:43:02;5.40;97.60
4461;DHT22;2243;48.812;9.232;2023-03-08T06:45:33;5.50;97.80
4461;DHT22;2243;48.812;9.232;2023-03-08T06:48:07;5.50;97.80
4461;DHT22;2243;48.812;9.232;2023-03-08T06:50:38;5.50;97.90
4461;DHT22;2243;48.812;9.232;2023-03-08T06:53:11;5.60;97.90
4461;DHT22;2243;48.812;9.232;2023-03-08T06:55:43;5.60;97.80
4461;DHT22;2243;48.812;9.232;2023-03-08T06:58:14;5.60;97.60
4461;DHT22;2243;48.812;9.232;2023-03-08T07:00:45;5.70;97.60
4461;DHT22;2243;48.812;9.232;2023-03-08T07:03:15;6.60;99.90
4461;DHT22;2243;48.812;9.232;2023-03-08T07:05:46;7.50;99.90
4461;DHT22;2243;48.812;9.232;2023-03-08T07:08:17;8.10;99.90
4461;DHT22;2243;48.812;9.232;2023-03-08T07:10:48;7.70;97.90
4461;DHT22;2243;48.812;9.232;2023-03-08T07:13:19;7.40;98.10
4461;DHT22;2243;48.812;9.232;2023-03-08T07:15:53;7.10;97.30
4461;DHT22;2243;48.812;9.232;2023-03-08T07:18:24;6.80;97.80
4461;DHT22;2243;48.812;9.232;2023-03-08T07:20:56;6.60;98.00
4461;DHT22;2243;48.812;9.232;2023-03-08T07:23:27;6.50;98.10
4461;DHT22;2243;48.812;9.232;2023-03-08T07:25:58;6.40;98.00
4461;DHT22;2243;48.812;9.232;2023-03-08T07:28:29;6.20;98.00
4461;DHT22;2243;48.812;9.232;2023-03-08T07:31:00;6.20;98.30
4461;DHT22;2243;48.812;9.232;2023-03-08T07:33:31;6.20;98.20
4461;DHT22;2243;48.812;9.232;2023-03-08T07:36:02;6.10;98.30
4461;DHT22;2243;48.812;9.232;2023-03-08T07:38:33;6.10;98.50
4461;DHT22;2243;48.812;9.232;2023-03-08T07:41:04;6.10;98.50
4461;DHT22;2243;48.812;9.232;2023-03-08T07:43:35;6.10;98.60
4461;DHT22;2243;48.812;9.232;2023-03-08T07:46:06;6.10;98.70
4461;DHT22;2243;48.812;9.232;2023-03-08T07:48:37;6.20;98.60
4461;DHT22;2243;48.812;9.232;2023-03-08T07:51:08;6.20;98.70
4461;DHT22;2243;48.812;9.232;2023-03-08T07:53:39;6.20;98.90
4461;DHT22;2243;48.812;9.232;2023-03-08T07:56:10;6.20;98.90
4461;DHT22;2243;48.812;9.232;2023-03-08T07:58:42;6.20;98.80
4461;DHT22;2243;48.812;9.232;2023-03-08T08:01:13;6.20;98.80
4461;DHT22;2243;48.812;9.232;2023-03-08T08:03:44;6.20;99.00
4461;DHT22;2243;48.812;9.232;2023-03-08T08:06:15;6.20;99.00
4461;DHT22;2243;48.812;9.232;2023-03-08T08:08:46;6.20;99.20
4461;DHT22;2243;48.812;9.232;2023-03-08T08:11:17;6.20;99.50
4461;DHT22;2243;48.812;9.232;2023-03-08T08:13:51;6.30;99.40
4461;DHT22;2243;48.812;9.232;2023-03-08T08:16:22;6.30;99.40
4461;DHT22;2243;48.812;9.232;2023-03-08T08:18:53;6.30;99.40
4461;DHT22;2243;48.812;9.232;2023-03-08T08:21:25;6.30;99.40
4461;DHT22;2243;48.812;9.232;2023-03-08T08:23:57;6.30;99.40
4461;DHT22;2243;48.812;9.232;2023-03-08T08:26:28;6.40;99.40
4461;DHT22;2243;48.812;9.232;2023-03-08T08:28:59;6.30;99.60
4461;DHT22;2243;48.812;9.232;2023-03-08T08:31:30;6.20;99.90
4461;DHT22;2243;48.812;9.232;2023-03-08T08:34:01;6.40;99.80
4461;DHT22;2243;48.812;9.232;2023-03-08T08:36:32;6.40;99.90
4461;DHT22;2243;48.812;9.232;2023-03-08T08:39:03;6.40;99.90
4461;DHT22;2243;48.812;9.232;2023-03-08T08:41:34;6.50;99.90
4461;DHT22;2243;48.812;9.232;2023-03-08T08:44:05;6.40;99.90
4461;DHT22;2243;48.812;9.232;2023-03-08T08:46:36;6.40;99.90
4461;DHT22;2243;48.812;9.232;2023-03-08T08:49:08;6.40;99.90
4461;DHT22;2243;48.812;9.232;2023-03-08T08:51:39;6.50;99.90
4461;DHT22;2243;48.812;9.232;2023-03-08T08:54:10;6.60;99.90
4461;DHT22;2243;48.812;9.232;2023-03-08T08:56:41;6.60;99.90
4461;DHT22;2243;48.812;9.232;2023-03-08T08:59:13;6.70;99.90
4461;DHT22;2243;48.812;9.232;2023-03-08T09:01:45;6.60;99.90
4461;DHT22;2243;48.812;9.232;2023-03-08T09:04:16;6.50;99.90
4461;DHT22;2243;48.812;9.232;2023-03-08T09:06:49;6.50;99.90
4461;DHT22;2243;48.812;9.232;2023-03-08T09:09:20;6.50;99.90
4461;DHT22;2243;48.812;9.232;2023-03-08T09:11:51;6.50;99.90
4461;DHT22;2243;48.812;9.232;2023-03-08T09:14:25;6.50;99.90
4461;DHT22;2243;48.812;9.232;2023-03-08T09:16:56;6.50;99.90
4461;DHT22;2243;48.812;9.232;2023-03-08T09:19:27;6.50;99.90
4461;DHT22;2243;48.812;9.232;2023-03-08T09:21:58;6.60;99.90
4461;DHT22;2243;48.812;9.232;2023-03-08T09:24:29;6.50;99.90
4461;DHT22;2243;48.812;9.232;2023-03-08T09:27:00;6.60;99.90
4461;DHT22;2243;48.812;9.232;2023-03-08T09:29:31;6.60;99.90
4461;DHT22;2243;48.812;9.232;2023-03-08T09:32:04;6.60;99.90
4461;DHT22;2243;48.812;9.232;2023-03-08T09:34:35;6.60;99.90
4461;DHT22;2243;48.812;9.232;2023-03-08T09:37:06;6.60;99.90
4461;DHT22;2243;48.812;9.232;2023-03-08T09:39:37;6.60;99.90
4461;DHT22;2243;48.812;9.232;2023-03-08T09:42:22;6.60;99.90
4461;DHT22;2243;48.812;9.232;2023-03-08T09:45:07;6.80;99.90
4461;DHT22;2243;48.812;9.232;2023-03-08T09:47:40;6.70;99.90
4461;DHT22;2243;48.812;9.232;2023-03-08T09:53:26;6.90;99.90
4461;DHT22;2243;48.812;9.232;2023-03-08T09:56:04;6.90;99.90
4461;DHT22;2243;48.812;9.232;2023-03-08T10:01:41;7.10;99.90
4461;DHT22;2243;48.812;9.232;2023-03-08T10:04:38;7.20;99.90
4461;DHT22;2243;48.812;9.232;2023-03-08T10:13:50;7.50;99.90
4461;DHT22;2243;48.812;9.232;2023-03-08T10:16:42;7.40;99.90
4461;DHT22;2243;48.812;9.232;2023-03-08T10:19:26;7.50;99.90
4461;DHT22;2243;48.812;9.232;2023-03-08T10:22:08;7.60;99.90
4461;DHT22;2243;48.812;9.232;2023-03-08T10:24:59;7.60;99.90
4461;DHT22;2243;48.812;9.232;2023-03-08T10:27:33;7.60;99.90
4461;DHT22;2243;48.812;9.232;2023-03-08T10:30:14;7.60;99.90
4461;DHT22;2243;48.812;9.232;2023-03-08T10:32:50;7.60;99.90
4461;DHT22;2243;48.812;9.232;2023-03-08T10:35:33;7.60;99.90
4461;DHT22;2243;48.812;9.232;2023-03-08T10:38:14;7.70;99.90
4461;DHT22;2243;48.812;9.232;2023-03-08T10:40:46;7.60;99.90
4461;DHT22;2243;48.812;9.232;2023-03-08T10:43:33;7.70;99.90
4461;DHT22;2243;48.812;9.232;2023-03-08T10:46:11;7.80;99.90
4461;DHT22;2243;48.812;9.232;2023-03-08T10:48:45;7.80;99.90
4461;DHT22;2243;48.812;9.232;2023-03-08T10:51:20;8.10;99.90
4461;DHT22;2243;48.812;9.232;2023-03-08T10:53:54;8.20;99.90
4461;DHT22;2243;48.812;9.232;2023-03-08T10:59:20;8.60;99.90
4461;DHT22;2243;48.812;9.232;2023-03-08T11:04:53;9.00;99.90
4461;DHT22;2243;48.812;9.232;2023-03-08T11:07:31;9.20;99.90
4461;DHT22;2243;48.812;9.232;2023-03-08T11:10:17;9.30;99.90
4461;DHT22;2243;48.812;9.232;2023-03-08T11:13:20;9.50;99.90
4461;DHT22;2243;48.812;9.232;2023-03-08T11:22:36;10.30;99.90
4461;DHT22;2243;48.812;9.232;2023-03-08T11:39:43;10.50;99.90
4461;DHT22;2243;48.812;9.232;2023-03-08T11:42:46;10.50;99.90
4461;DHT22;2243;48.812;9.232;2023-03-08T11:49:16;10.60;99.90
4461;DHT22;2243;48.812;9.232;2023-03-08T11:51:51;10.70;99.90
4461;DHT22;2243;48.812;9.232;2023-03-08T11:54:43;10.80;99.90
4461;DHT22;2243;48.812;9.232;2023-03-08T11:57:43;10.90;99.90
4461;DHT22;2243;48.812;9.232;2023-03-08T12:03:12;10.90;99.90
4461;DHT22;2243;48.812;9.232;2023-03-08T12:06:51;11.00;99.90
4461;DHT22;2243;48.812;9.232;2023-03-08T12:09:28;11.00;99.90
4461;DHT22;2243;48.812;9.232;2023-03-08T12:12:17;11.10;99.90
4461;DHT22;2243;48.812;9.232;2023-03-08T12:15:03;11.10;99.90
4461;DHT22;2243;48.812;9.232;2023-03-08T12:17:41;11.20;99.90
4461;DHT22;2243;48.812;9.232;2023-03-08T12:20:20;11.30;99.90
4461;DHT22;2243;48.812;9.232;2023-03-08T12:23:03;11.30;99.90
4461;DHT22;2243;48.812;9.232;2023-03-08T12:25:44;11.40;99.90
4461;DHT22;2243;48.812;9.232;2023-03-08T12:33:58;11.40;99.90
4461;DHT22;2243;48.812;9.232;2023-03-08T12:36:41;11.50;99.90
4461;DHT22;2243;48.812;9.232;2023-03-08T12:39:30;11.50;99.90
4461;DHT22;2243;48.812;9.232;2023-03-08T12:44:40;11.60;99.90
4461;DHT22;2243;48.812;9.232;2023-03-08T12:49:54;11.70;99.90
4461;DHT22;2243;48.812;9.232;2023-03-08T12:52:35;11.70;99.90
4461;DHT22;2243;48.812;9.232;2023-03-08T12:55:21;11.80;99.90
4461;DHT22;2243;48.812;9.232;2023-03-08T12:58:03;11.90;99.90
4461;DHT22;2243;48.812;9.232;2023-03-08T13:00:35;11.90;99.90
4461;DHT22;2243;48.812;9.232;2023-03-08T13:05:44;12.00;99.90
4461;DHT22;2243;48.812;9.232;2023-03-08T13:08:33;12.10;99.90
4461;DHT22;2243;48.812;9.232;2023-03-08T13:11:11;12.10;99.90
4461;DHT22;2243;48.812;9.232;2023-03-08T13:13:55;12.10;99.90
4461;DHT22;2243;48.812;9.232;2023-03-08T13:16:34;12.20;99.90
4461;DHT22;2243;48.812;9.232;2023-03-08T13:19:16;12.20;99.90
4461;DHT22;2243;48.812;9.232;2023-03-08T13:30:56;12.50;99.90
4461;DHT22;2243;48.812;9.232;2023-03-08T13:33:31;12.70;99.90
4461;DHT22;2243;48.812;9.232;2023-03-08T13:39:13;12.80;99.90
4461;DHT22;2243;48.812;9.232;2023-03-08T13:41:48;13.00;99.90
4461;DHT22;2243;48.812;9.232;2023-03-08T13:44:24;12.90;99.90
4461;DHT22;2243;48.812;9.232;2023-03-08T13:46:59;13.00;99.90
4461;DHT22;2243;48.812;9.232;2023-03-08T13:49:39;13.00;99.90
4461;DHT22;2243;48.812;9.232;2023-03-08T13:52:16;13.10;99.90
4461;DHT22;2243;48.812;9.232;2023-03-08T13:54:52;13.20;99.90
4461;DHT22;2243;48.812;9.232;2023-03-08T14:00:08;13.30;99.90
4461;DHT22;2243;48.812;9.232;2023-03-08T14:02:51;13.20;99.90
4461;DHT22;2243;48.812;9.232;2023-03-08T14:05:27;13.20;99.90
4461;DHT22;2243;48.812;9.232;2023-03-08T14:08:03;13.10;99.90
4461;DHT22;2243;48.812;9.232;2023-03-08T14:10:39;13.10;99.90
4461;DHT22;2243;48.812;9.232;2023-03-08T14:13:36;13.20;99.90
4461;DHT22;2243;48.812;9.232;2023-03-08T14:16:08;13.40;99.90
4461;DHT22;2243;48.812;9.232;2023-03-08T14:18:54;13.40;99.90
4461;DHT22;2243;48.812;9.232;2023-03-08T14:21:27;13.60;99.90
4461;DHT22;2243;48.812;9.232;2023-03-08T14:24:01;13.60;99.90
4461;DHT22;2243;48.812;9.232;2023-03-08T14:26:38;13.60;99.90
4461;DHT22;2243;48.812;9.232;2023-03-08T14:37:21;13.20;99.90
4461;DHT22;2243;48.812;9.232;2023-03-08T14:40:23;13.20;99.90
4461;DHT22;2243;48.812;9.232;2023-03-08T14:43:05;13.30;99.90
4461;DHT22;2243;48.812;9.232;2023-03-08T14:45:57;13.20;99.90
4461;DHT22;2243;48.812;9.232;2023-03-08T14:48:37;13.10;99.90
4461;DHT22;2243;48.812;9.232;2023-03-08T14:56:28;13.00;99.90
4461;DHT22;2243;48.812;9.232;2023-03-08T14:59:01;12.80;99.90
4461;DHT22;2243;48.812;9.232;2023-03-08T15:01:36;12.70;99.90
4461;DHT22;2243;48.812;9.232;2023-03-08T15:04:19;12.70;99.90
4461;DHT22;2243;48.812;9.232;2023-03-08T15:06:54;12.70;99.90
4461;DHT22;2243;48.812;9.232;2023-03-08T15:09:25;12.80;99.90
4461;DHT22;2243;48.812;9.232;2023-03-08T15:11:58;12.80;99.90
4461;DHT22;2243;48.812;9.232;2023-03-08T15:14:31;12.90;99.90
4461;DHT22;2243;48.812;9.232;2023-03-08T15:17:01;12.90;99.90
4461;DHT22;2243;48.812;9.232;2023-03-08T15:19:32;12.90;99.90
4461;DHT22;2243;48.812;9.232;2023-03-08T15:22:04;13.00;99.90
4461;DHT22;2243;48.812;9.232;2023-03-08T15:24:36;13.10;99.90
4461;DHT22;2243;48.812;9.232;2023-03-08T15:27:12;13.30;99.90
4461;DHT22;2243;48.812;9.232;2023-03-08T15:29:44;13.60;99.90
4461;DHT22;2243;48.812;9.232;2023-03-08T15:32:15;13.90;99.90
4461;DHT22;2243;48.812;9.232;2023-03-08T15:34:46;13.90;99.90
4461;DHT22;2243;48.812;9.232;2023-03-08T15:37:17;14.00;99.90
4461;DHT22;2243;48.812;9.232;2023-03-08T15:39:47;13.90;99.90
4461;DHT22;2243;48.812;9.232;2023-03-08T15:42:18;13.80;99.90
4461;DHT22;2243;48.812;9.232;2023-03-08T15:44:49;13.70;99.90
4461;DHT22;2243;48.812;9.232;2023-03-08T15:47:20;13.50;99.90
4461;DHT22;2243;48.812;9.232;2023-03-08T15:49:51;13.40;99.90
4461;DHT22;2243;48.812;9.232;2023-03-08T15:52:22;13.40;99.90
4461;DHT22;2243;48.812;9.232;2023-03-08T15:55:00;13.30;99.90
4461;DHT22;2243;48.812;9.232;2023-03-08T15:57:31;13.20;99.90
4461;DHT22;2243;48.812;9.232;2023-03-08T16:00:06;13.20;99.90
4461;DHT22;2243;48.812;9.232;2023-03-08T16:02:41;13.20;99.90
4461;DHT22;2243;48.812;9.232;2023-03-08T16:05:13;13.20;99.90
4461;DHT22;2243;48.812;9.232;2023-03-08T16:07:45;13.10;99.90
4461;DHT22;2243;48.812;9.232;2023-03-08T16:10:16;13.10;99.90
4461;DHT22;2243;48.812;9.232;2023-03-08T16:12:47;13.10;99.90
4461;DHT22;2243;48.812;9.232;2023-03-08T16:15:18;13.00;99.90
4461;DHT22;2243;48.812;9.232;2023-03-08T16:17:49;13.00;99.90
4461;DHT22;2243;48.812;9.232;2023-03-08T16:20:20;13.10;99.90
4461;DHT22;2243;48.812;9.232;2023-03-08T16:22:52;13.10;99.90
4461;DHT22;2243;48.812;9.232;2023-03-08T16:25:25;13.00;99.90
4461;DHT22;2243;48.812;9.232;2023-03-08T16:27:56;13.00;99.90
4461;DHT22;2243;48.812;9.232;2023-03-08T16:30:27;12.90;99.90
4461;DHT22;2243;48.812;9.232;2023-03-08T16:32:58;12.80;99.90
4461;DHT22;2243;48.812;9.232;2023-03-08T16:35:29;12.70;99.90
4461;DHT22;2243;48.812;9.232;2023-03-08T16:38:00;12.50;99.90
4461;DHT22;2243;48.812;9.232;2023-03-08T16:40:30;12.40;99.90
4461;DHT22;2243;48.812;9.232;2023-03-08T16:43:02;12.30;99.90
4461;DHT22;2243;48.812;9.232;2023-03-08T16:45:34;12.30;99.90
4461;DHT22;2243;48.812;9.232;2023-03-08T16:48:07;12.40;99.90
4461;DHT22;2243;48.812;9.232;2023-03-08T16:50:41;12.40;99.90
4461;DHT22;2243;48.812;9.232;2023-03-08T16:53:19;12.50;99.90
4461;DHT22;2243;48.812;9.232;2023-03-08T16:55:50;12.50;99.90
4461;DHT22;2243;48.812;9.232;2023-03-08T16:58:24;12.60;99.90
4461;DHT22;2243;48.812;9.232;2023-03-08T17:00:55;12.60;99.90
4461;DHT22;2243;48.812;9.232;2023-03-08T17:03:26;12.60;99.90
4461;DHT22;2243;48.812;9.232;2023-03-08T17:05:57;12.60;99.90
4461;DHT22;2243;48.812;9.232;2023-03-08T17:08:28;12.50;99.90
4461;DHT22;2243;48.812;9.232;2023-03-08T17:10:59;12.50;99.90
4461;DHT22;2243;48.812;9.232;2023-03-08T17:13:32;12.40;99.90
4461;DHT22;2243;48.812;9.232;2023-03-08T17:16:04;12.40;99.90
4461;DHT22;2243;48.812;9.232;2023-03-08T17:18:35;12.40;99.90
4461;DHT22;2243;48.812;9.232;2023-03-08T17:21:06;12.40;99.90
4461;DHT22;2243;48.812;9.232;2023-03-08T17:23:37;12.40;99.90
4461;DHT22;2243;48.812;9.232;2023-03-08T17:26:09;12.40;99.90
4461;DHT22;2243;48.812;9.232;2023-03-08T17:28:43;12.40;99.90
4461;DHT22;2243;48.812;9.232;2023-03-08T17:31:16;12.40;99.90
4461;DHT22;2243;48.812;9.232;2023-03-08T17:33:52;12.50;99.90
4461;DHT22;2243;48.812;9.232;2023-03-08T17:36:24;12.50;99.90
4461;DHT22;2243;48.812;9.232;2023-03-08T17:38:55;12.50;99.90
4461;DHT22;2243;48.812;9.232;2023-03-08T17:41:26;12.50;99.90
4461;DHT22;2243;48.812;9.232;2023-03-08T17:43:57;12.50;99.90
4461;DHT22;2243;48.812;9.232;2023-03-08T17:46:28;12.50;99.90
4461;DHT22;2243;48.812;9.232;2023-03-08T17:48:59;12.50;99.90
4461;DHT22;2243;48.812;9.232;2023-03-08T17:51:33;12.50;99.90
4461;DHT22;2243;48.812;9.232;2023-03-08T17:54:04;12.60;99.90
4461;DHT22;2243;48.812;9.232;2023-03-08T17:56:37;12.50;99.90
4461;DHT22;2243;48.812;9.232;2023-03-08T17:59:13;12.50;99.90
4461;DHT22;2243;48.812;9.232;2023-03-08T18:01:45;12.50;99.90
4461;DHT22;2243;48.812;9.232;2023-03-08T18:04:19;12.40;99.90
4461;DHT22;2243;48.812;9.232;2023-03-08T18:06:51;12.40;99.90
4461;DHT22;2243;48.812;9.232;2023-03-08T18:09:22;12.40;99.90
4461;DHT22;2243;48.812;9.232;2023-03-08T18:11:56;12.40;99.90
4461;DHT22;2243;48.812;9.232;2023-03-08T18:14:27;12.40;99.90
4461;DHT22;2243;48.812;9.232;2023-03-08T18:17:09;12.40;99.90
4461;DHT22;2243;48.812;9.232;2023-03-08T18:19:40;12.50;99.90
4461;DHT22;2243;48.812;9.232;2023-03-08T18:22:12;12.40;99.90
4461;DHT22;2243;48.812;9.232;2023-03-08T18:24:44;12.40;99.90
4461;DHT22;2243;48.812;9.232;2023-03-08T18:27:15;12.30;99.90
4461;DHT22;2243;48.812;9.232;2023-03-08T18:29:46;12.40;99.90